LEVX

Vigo

Airport
ICAO code
LEVX
Summary
ICAO Region
EUR
ICAO Territory
Location

Vigo, Spain,

Coordinates
42° 13' 54" N , 8° 37' 36" W
KCC
Metar
Observation
LEVX 071300Z 22003KT 170V260 CAVOK 14/10 Q1010
Station
Vigo / Peinador
Date/Time
2022-12-07 13:00:00
Wind direction
220°
Wind speed
03 kts
Lowest cloud amount
clouds and visibility OK
Temperature
14°C
Dew point
10°C
Humidity
76%
QNH
1010 hPa
Weather condition
n/a

Description

International airport serving Asturias, northwest Spain.

Climatology

Temperate Marine climate/Oceanic climate (Köppen climate classification Cfb). Moderately cool summer and comparatively warm winter with a temperature range of only 14°C. Prevailing south-westerly winds from the Atlantic Ocean.

Runways

Designator Length Width Surface Rops
2/20 2400 45 ASP Yes/Yes

Airport map

Aerial View

Airport accidents

SKYbrary Partners:

Safety knowledge contributed by: